createdAt,value
2023-04-05T00:03:04.302Z,-2.50
2023-04-05T00:07:21.821Z,-2.40
2023-04-05T00:11:39.048Z,-2.40
2023-04-05T00:15:58.549Z,-2.40
2023-04-05T00:20:16.030Z,-2.30
2023-04-05T00:24:34.059Z,-2.20
2023-04-05T00:28:51.508Z,-2.10
2023-04-05T00:33:08.687Z,-2.00
2023-04-05T00:37:25.903Z,-1.90
2023-04-05T00:41:46.332Z,-1.90
2023-04-05T00:46:08.102Z,-1.80
2023-04-05T00:50:30.268Z,-1.70
2023-04-05T00:54:47.795Z,-1.70
2023-04-05T00:59:05.283Z,-1.60
2023-04-05T01:03:26.051Z,-1.50
2023-04-05T01:07:55.403Z,-1.50
2023-04-05T01:12:17.845Z,-1.60
2023-04-05T01:16:35.075Z,-1.50
2023-04-05T01:21:20.957Z,-1.50
2023-04-05T01:26:05.966Z,-1.50
2023-04-05T01:30:32.125Z,-1.50
2023-04-05T01:35:14.998Z,-1.50
2023-04-05T01:39:33.968Z,-1.40
2023-04-05T01:43:51.125Z,-1.40
2023-04-05T01:48:08.305Z,-1.40
2023-04-05T01:52:25.626Z,-1.30
2023-04-05T01:56:43.181Z,-1.20
2023-04-05T02:01:00.513Z,-1.10
2023-04-05T02:05:18.024Z,-1.20
2023-04-05T02:09:35.237Z,-1.10
2023-04-05T02:13:52.467Z,-0.90
2023-04-05T02:18:10.750Z,-0.90
2023-04-05T02:22:28.693Z,-0.90
2023-04-05T02:26:47.504Z,-0.90
2023-04-05T02:31:10.644Z,-1.10
2023-04-05T02:35:27.872Z,-1.20
2023-04-05T02:39:45.069Z,-1.10
2023-04-05T02:44:02.660Z,-0.90
2023-04-05T02:48:19.924Z,-1.00
2023-04-05T02:52:37.638Z,-0.90
2023-04-05T02:56:58.004Z,-0.70
2023-04-05T03:01:18.170Z,-0.60
2023-04-05T03:05:35.527Z,-0.70
2023-04-05T03:09:53.955Z,-0.70
2023-04-05T03:14:12.186Z,-0.70
2023-04-05T03:18:29.822Z,-0.70
2023-04-05T03:22:46.998Z,-0.70
2023-04-05T03:27:06.093Z,-0.60
2023-04-05T03:31:23.279Z,-0.70
2023-04-05T03:35:40.774Z,-0.60
2023-04-05T03:39:58.148Z,-0.50
2023-04-05T03:44:15.413Z,-0.40
2023-04-05T03:48:32.622Z,-0.40
2023-04-05T03:52:49.810Z,-0.40
2023-04-05T03:57:07.241Z,-0.30
2023-04-05T04:01:24.985Z,-0.20
2023-04-05T04:05:42.724Z,-0.30
2023-04-05T04:10:00.165Z,-0.40
2023-04-05T04:14:17.507Z,-0.60
2023-04-05T04:18:34.678Z,-0.50
2023-04-05T04:22:53.861Z,-0.40
2023-04-05T04:27:11.208Z,-0.30
2023-04-05T04:31:28.459Z,-0.40
2023-04-05T04:35:47.186Z,-0.30
2023-04-05T04:40:08.892Z,-0.20
2023-04-05T04:44:31.275Z,-0.20
2023-04-05T04:48:48.537Z,-0.30
2023-04-05T04:53:06.702Z,-0.40
2023-04-05T04:57:25.698Z,-0.40
2023-04-05T05:01:45.446Z,-0.30
2023-04-05T05:06:03.160Z,-0.40
2023-04-05T05:10:21.029Z,-0.20
2023-04-05T05:14:38.302Z,-0.10
2023-04-05T05:18:55.495Z,-0.20
2023-04-05T05:23:12.791Z,-0.10
2023-04-05T05:27:30.166Z,0.10
2023-04-05T05:31:47.366Z,0.10
2023-04-05T05:36:04.926Z,0.30
2023-04-05T05:40:22.129Z,0.10
2023-04-05T05:44:39.458Z,0.00
2023-04-05T05:48:56.935Z,0.10
2023-04-05T05:53:14.313Z,0.00
2023-04-05T05:57:31.900Z,0.10
2023-04-05T06:01:51.228Z,0.20
2023-04-05T06:06:11.119Z,0.40
2023-04-05T06:10:28.486Z,0.30
2023-04-05T06:14:46.259Z,0.40
2023-04-05T06:19:03.620Z,0.50
2023-04-05T06:23:20.813Z,0.70
2023-04-05T06:27:37.935Z,0.90
2023-04-05T06:31:55.535Z,0.90
2023-04-05T06:36:12.929Z,0.90
2023-04-05T06:40:30.263Z,1.00
2023-04-05T06:44:47.544Z,1.10
2023-04-05T06:49:04.728Z,1.10
2023-04-05T06:53:22.404Z,1.20
2023-04-05T06:57:39.689Z,1.40
2023-04-05T07:01:56.952Z,1.70
2023-04-05T07:06:14.384Z,1.90
2023-04-05T07:10:31.590Z,2.00
2023-04-05T07:14:49.000Z,1.90
2023-04-05T07:19:06.442Z,1.90
2023-04-05T07:23:23.676Z,2.20
2023-04-05T07:27:40.904Z,2.30
2023-04-05T07:31:58.171Z,2.10
2023-04-05T07:36:15.549Z,2.30
2023-04-05T07:40:33.199Z,2.70
2023-04-05T07:44:50.566Z,2.70
2023-04-05T07:49:07.866Z,2.70
2023-04-05T07:53:25.233Z,2.60
2023-04-05T07:57:42.526Z,2.80
2023-04-05T08:02:08.285Z,3.40
2023-04-05T08:06:31.251Z,3.80
2023-04-05T08:10:48.456Z,3.30
2023-04-05T08:15:06.330Z,3.70
2023-04-05T08:19:23.558Z,3.30
2023-04-05T08:23:40.995Z,3.00
2023-04-05T08:27:58.521Z,3.90
2023-04-05T08:32:15.984Z,4.40
2023-04-05T08:36:33.286Z,4.00
2023-04-05T08:40:50.752Z,4.50
2023-04-05T08:45:11.173Z,4.60
2023-04-05T08:49:28.937Z,5.10
2023-04-05T08:53:46.192Z,5.40
2023-04-05T08:58:10.908Z,4.80
2023-04-05T09:02:29.398Z,5.00
2023-04-05T09:06:49.864Z,5.40
2023-04-05T09:11:07.154Z,5.20
2023-04-05T09:15:29.140Z,5.40
2023-04-05T09:19:46.551Z,6.20
2023-04-05T09:24:03.788Z,5.80
2023-04-05T09:28:21.304Z,6.10
2023-04-05T09:32:46.945Z,6.10
2023-04-05T09:37:16.398Z,6.70
2023-04-05T09:41:35.007Z,7.40
2023-04-05T09:45:52.230Z,8.40
2023-04-05T09:50:15.624Z,8.90
2023-04-05T09:54:41.938Z,8.00
2023-04-05T09:59:01.568Z,6.70
2023-04-05T10:03:20.996Z,6.50
2023-04-05T10:07:42.318Z,7.00
2023-04-05T10:12:01.134Z,6.60
2023-04-05T10:16:22.317Z,6.20
2023-04-05T10:20:41.449Z,6.10
2023-04-05T10:25:27.145Z,6.10
2023-04-05T10:29:51.233Z,6.10
2023-04-05T10:34:19.520Z,6.10
2023-04-05T10:38:57.317Z,6.10
2023-04-05T10:43:21.371Z,5.90
2023-04-05T10:47:54.104Z,6.20
2023-04-05T10:52:11.779Z,6.30
2023-04-05T10:56:29.818Z,6.60
2023-04-05T11:00:49.510Z,6.90
2023-04-05T11:05:07.589Z,7.10
2023-04-05T11:09:25.921Z,6.40
2023-04-05T11:13:56.479Z,6.60
2023-04-05T11:18:16.443Z,7.30
2023-04-05T11:22:33.592Z,7.30
2023-04-05T11:26:51.013Z,6.60
2023-04-05T11:31:19.701Z,8.10
2023-04-05T11:35:39.531Z,9.50
2023-04-05T11:40:24.310Z,9.70
2023-04-05T11:44:49.691Z,10.00
2023-04-05T11:49:07.705Z,9.40
2023-04-05T11:53:24.888Z,8.90
2023-04-05T11:57:42.044Z,9.60
2023-04-05T12:02:04.184Z,10.60
2023-04-05T12:06:25.758Z,11.10
2023-04-05T12:10:43.007Z,10.40
2023-04-05T12:15:01.911Z,9.50
2023-04-05T12:19:22.152Z,9.00
2023-04-05T12:23:39.486Z,7.90
2023-04-05T12:27:56.743Z,8.30
2023-04-05T12:32:14.017Z,8.60
2023-04-05T12:36:34.336Z,8.50
2023-04-05T12:40:52.689Z,8.60
2023-04-05T12:45:12.989Z,7.70
2023-04-05T12:49:35.374Z,8.00
2023-04-05T12:53:57.016Z,8.40
2023-04-05T12:58:14.730Z,8.20
2023-04-05T13:02:32.128Z,8.00
2023-04-05T13:06:50.126Z,7.50
2023-04-05T13:11:07.440Z,7.70
2023-04-05T13:15:24.796Z,7.40
2023-04-05T13:19:42.500Z,7.50
2023-04-05T13:24:00.113Z,7.80
2023-04-05T13:28:17.466Z,7.90
2023-04-05T13:32:34.791Z,7.40
2023-04-05T13:36:54.647Z,7.30
2023-04-05T13:41:11.990Z,7.30
2023-04-05T13:45:29.396Z,6.80
2023-04-05T13:49:47.039Z,7.00
2023-04-05T13:54:04.324Z,7.10
2023-04-05T13:58:21.488Z,8.10
2023-04-05T14:02:39.568Z,9.80
2023-04-05T14:06:57.688Z,10.30
2023-04-05T14:11:15.052Z,10.60
2023-04-05T14:15:32.834Z,10.40
2023-04-05T14:19:50.581Z,10.80
2023-04-05T14:24:08.064Z,10.10
2023-04-05T14:28:25.331Z,9.70
2023-04-05T14:32:42.758Z,9.90
2023-04-05T14:37:00.876Z,10.50
2023-04-05T14:41:19.336Z,10.60
2023-04-05T14:45:37.042Z,9.70
2023-04-05T14:49:54.251Z,9.90
2023-04-05T14:54:11.571Z,10.40
2023-04-05T14:58:29.411Z,10.00
2023-04-05T15:02:47.047Z,9.90
2023-04-05T15:07:04.269Z,9.90
